Philadelphia, Pennsylvania
Traffic Map
Current Weather Conditions
Philadelphia, Pennsylvania
Broken Clouds
Broken Clouds

Feels Like: -2°
Wind Chill: -2° Ceiling: 22000
Heat Index: Visibility: 10mi
Dew Point: -4° Wind: 12mph
Humidity: 62% Direction: 260° (W)
Pressure: 30.07in Gusts: 0mph
Raw Report DataKPHL 190054Z 26010KT 10SM FEW040 SCT160 BKN220 02/M04 A3007 RMK AO2 SLP181 T00221044
Traffic Incident Summary
Active as of:
Severity:
Category:
InformationThere was an issue retrieving the traffic information for this location. Please try a different location or try again shortly.
Advertisements
Track Severe Weather on mobile